createdAt,value
2019-04-11T00:00:43.787Z,4.10
2019-04-11T00:03:13.411Z,4.00
2019-04-11T00:05:43.335Z,4.00
2019-04-11T00:08:12.702Z,4.00
2019-04-11T00:10:42.077Z,4.00
2019-04-11T00:13:19.757Z,3.90
2019-04-11T00:15:42.606Z,3.90
2019-04-11T00:18:11.998Z,3.90
2019-04-11T00:20:42.403Z,3.80
2019-04-11T00:23:12.186Z,3.80
2019-04-11T00:25:42.039Z,3.80
2019-04-11T00:28:11.635Z,3.80
2019-04-11T00:30:42.092Z,3.80
2019-04-11T00:33:11.919Z,3.70
2019-04-11T00:35:41.933Z,3.70
2019-04-11T00:38:11.774Z,3.70
2019-04-11T00:40:41.618Z,3.70
2019-04-11T00:43:11.492Z,3.60
2019-04-11T00:45:40.934Z,3.60
2019-04-11T00:48:11.265Z,3.60
2019-04-11T00:50:40.780Z,3.60
2019-04-11T00:53:10.538Z,3.50
2019-04-11T00:55:41.809Z,3.50
2019-04-11T00:58:11.682Z,3.50
2019-04-11T01:00:42.907Z,3.40
2019-04-11T01:03:12.375Z,3.40
2019-04-11T01:05:41.805Z,3.40
2019-04-11T01:08:11.506Z,3.40
2019-04-11T01:10:41.529Z,3.40
2019-04-11T01:13:11.290Z,3.40
2019-04-11T01:15:44.921Z,3.40
2019-04-11T01:18:14.321Z,3.30
2019-04-11T01:20:43.930Z,3.30
2019-04-11T01:23:13.363Z,3.30
2019-04-11T01:25:42.827Z,3.30
2019-04-11T01:28:12.240Z,3.30
2019-04-11T01:30:53.338Z,3.20
2019-04-11T01:33:22.698Z,3.20
2019-04-11T01:35:53.258Z,3.20
2019-04-11T01:38:23.695Z,3.20
2019-04-11T01:40:54.053Z,3.10
2019-04-11T01:43:24.103Z,3.10
2019-04-11T01:45:53.827Z,3.10
2019-04-11T01:48:42.361Z,3.00
2019-04-11T01:51:11.787Z,3.00
2019-04-11T01:53:42.230Z,3.00
2019-04-11T01:56:12.789Z,3.00
2019-04-11T01:58:42.696Z,3.00
2019-04-11T02:01:20.954Z,3.00
2019-04-11T02:03:55.570Z,3.00
2019-04-11T02:06:25.717Z,2.90
2019-04-11T02:08:55.625Z,2.90
2019-04-11T02:11:25.672Z,2.90
2019-04-11T02:14:05.068Z,2.80
2019-04-11T02:16:27.250Z,2.80
2019-04-11T02:18:56.685Z,2.80
2019-04-11T02:21:26.051Z,2.80
2019-04-11T02:24:15.261Z,2.70
2019-04-11T02:26:48.277Z,2.80
2019-04-11T02:29:17.693Z,2.80
2019-04-11T02:31:47.303Z,2.70
2019-04-11T02:34:16.849Z,2.70
2019-04-11T02:36:46.590Z,2.60
2019-04-11T02:39:17.751Z,2.60
2019-04-11T02:41:47.539Z,2.50
2019-04-11T02:44:33.749Z,2.50
2019-04-11T02:46:57.770Z,2.60
2019-04-11T02:49:19.374Z,2.60
2019-04-11T02:51:51.290Z,2.50
2019-04-11T02:54:22.415Z,2.60
2019-04-11T02:56:53.078Z,2.50
2019-04-11T02:59:25.276Z,2.50
2019-04-11T03:01:55.897Z,2.50
2019-04-11T03:04:26.992Z,2.50
2019-04-11T03:06:57.389Z,2.50
2019-04-11T03:09:27.080Z,2.50
2019-04-11T03:11:58.932Z,2.50
2019-04-11T03:14:44.621Z,2.40
2019-04-11T03:17:09.332Z,2.40
2019-04-11T03:19:43.882Z,2.50
2019-04-11T03:22:03.277Z,2.40
2019-04-11T03:24:35.283Z,2.40
2019-04-11T03:27:04.900Z,2.40
2019-04-11T03:29:36.178Z,2.40
2019-04-11T03:35:19.980Z,2.40
2019-04-11T03:37:50.254Z,2.40
2019-04-11T03:40:00.735Z,2.40
2019-04-11T03:42:29.020Z,2.40
2019-04-11T03:44:47.879Z,2.40
2019-04-11T03:47:27.840Z,2.40
2019-04-11T03:49:51.867Z,2.40
2019-04-11T03:52:19.353Z,2.40
2019-04-11T03:54:49.585Z,2.40
2019-04-11T03:57:21.319Z,2.40
2019-04-11T03:59:52.011Z,2.40
2019-04-11T04:02:22.465Z,2.40
2019-04-11T04:04:53.980Z,2.50
2019-04-11T04:07:44.133Z,2.40
2019-04-11T04:10:15.772Z,2.50
2019-04-11T04:12:47.490Z,2.50
2019-04-11T04:15:50.808Z,2.50
2019-04-11T04:18:33.970Z,2.50
2019-04-11T04:21:33.199Z,2.50
2019-04-11T04:24:27.467Z,2.50
2019-04-11T04:27:00.933Z,2.50
2019-04-11T04:29:29.689Z,2.50
2019-04-11T04:31:59.624Z,2.50
2019-04-11T04:34:29.380Z,2.50
2019-04-11T04:37:00.099Z,2.50
2019-04-11T04:39:31.253Z,2.50
2019-04-11T04:42:08.126Z,2.50
2019-04-11T04:44:51.162Z,2.50
2019-04-11T04:47:26.395Z,2.50
2019-04-11T04:49:52.363Z,2.50
2019-04-11T04:52:22.654Z,2.50
2019-04-11T04:54:52.819Z,2.60
2019-04-11T04:57:42.912Z,2.70
2019-04-11T05:00:14.211Z,2.60
2019-04-11T05:02:44.586Z,2.60
2019-04-11T05:05:14.190Z,2.60
2019-04-11T05:07:46.297Z,2.60
2019-04-11T05:10:15.445Z,2.60
2019-04-11T05:12:46.127Z,2.50
2019-04-11T05:15:16.626Z,2.60
2019-04-11T05:17:46.689Z,2.60
2019-04-11T05:20:16.324Z,2.60
2019-04-11T05:22:45.770Z,2.70
2019-04-11T05:25:15.141Z,2.60
2019-04-11T05:27:45.422Z,2.70
2019-04-11T05:30:16.640Z,2.70
2019-04-11T05:32:47.105Z,2.60
2019-04-11T05:35:16.579Z,2.70
2019-04-11T05:37:47.064Z,2.70
2019-04-11T05:40:17.100Z,2.70
2019-04-11T05:42:50.582Z,2.80
2019-04-11T05:45:21.120Z,2.80
2019-04-11T05:47:50.930Z,2.80
2019-04-11T05:50:26.572Z,2.90
2019-04-11T05:52:56.714Z,2.90
2019-04-11T05:55:27.984Z,3.00
2019-04-11T05:57:58.956Z,3.00
2019-04-11T06:00:46.600Z,3.00
2019-04-11T06:03:17.556Z,3.00
2019-04-11T06:06:09.212Z,3.00
2019-04-11T06:08:39.815Z,3.00
2019-04-11T06:11:28.526Z,3.20
2019-04-11T06:14:13.121Z,3.20
2019-04-11T06:16:50.266Z,3.20
2019-04-11T06:19:48.038Z,3.30
2019-04-11T06:22:19.790Z,3.30
2019-04-11T06:25:09.155Z,3.30
2019-04-11T06:27:50.088Z,3.40
2019-04-11T06:30:48.503Z,3.50
2019-04-11T06:33:24.772Z,3.50
2019-04-11T06:36:23.317Z,3.60
2019-04-11T06:39:11.371Z,3.60
2019-04-11T06:42:01.225Z,3.70
2019-04-11T06:44:48.527Z,3.70
2019-04-11T06:47:43.540Z,3.80
2019-04-11T06:50:27.252Z,3.90
2019-04-11T06:52:56.783Z,3.90
2019-04-11T06:55:44.712Z,4.00
2019-04-11T06:58:21.476Z,4.10
2019-04-11T07:00:57.786Z,4.20
2019-04-11T07:03:30.817Z,4.30
2019-04-11T07:06:05.091Z,4.30
2019-04-11T07:08:42.645Z,4.40
2019-04-11T07:11:14.116Z,4.50
2019-04-11T07:13:53.284Z,4.50
2019-04-11T07:16:22.960Z,4.50
2019-04-11T07:19:11.434Z,4.60
2019-04-11T07:21:41.920Z,4.60
2019-04-11T07:24:45.419Z,4.70
2019-04-11T07:27:16.038Z,4.70
2019-04-11T07:30:03.146Z,4.80
2019-04-11T07:32:34.148Z,4.80
2019-04-11T07:35:21.513Z,4.80
2019-04-11T07:37:53.379Z,4.80
2019-04-11T07:40:41.196Z,4.80
2019-04-11T07:43:22.578Z,4.90
2019-04-11T07:46:25.241Z,4.90
2019-04-11T07:49:06.054Z,4.90
2019-04-11T07:51:43.064Z,4.90
2019-04-11T07:54:20.437Z,5.00
2019-04-11T07:57:12.995Z,5.10
2019-04-11T08:00:05.904Z,5.00
2019-04-11T08:02:57.788Z,5.10
2019-04-11T08:05:46.602Z,5.20
2019-04-11T08:08:32.929Z,5.20
2019-04-11T08:14:12.766Z,5.30
2019-04-11T08:17:07.387Z,5.40
2019-04-11T08:19:57.495Z,5.40
2019-04-11T08:22:52.064Z,5.50
2019-04-11T08:25:26.781Z,5.70
2019-04-11T08:28:04.279Z,5.80
2019-04-11T08:30:45.014Z,5.90
2019-04-11T08:33:16.176Z,6.00
2019-04-11T08:35:54.011Z,6.00
2019-04-11T08:38:28.776Z,6.10
2019-04-11T08:41:19.796Z,6.10
2019-04-11T08:43:49.418Z,6.20
2019-04-11T08:46:33.067Z,6.30
2019-04-11T08:49:05.635Z,6.40
2019-04-11T08:51:35.689Z,6.40
2019-04-11T08:54:23.855Z,6.60
2019-04-11T08:56:53.600Z,6.70
2019-04-11T08:59:41.961Z,6.70
2019-04-11T09:02:13.466Z,6.80
2019-04-11T09:05:08.489Z,6.80
2019-04-11T09:07:36.115Z,6.80
2019-04-11T09:10:24.169Z,6.90
2019-04-11T09:13:00.614Z,7.00
2019-04-11T09:15:48.846Z,7.00
2019-04-11T09:18:18.191Z,7.10
2019-04-11T09:21:07.721Z,7.10
2019-04-11T09:23:37.649Z,7.10
2019-04-11T09:26:26.049Z,7.10
2019-04-11T09:28:57.670Z,7.20
2019-04-11T09:31:45.693Z,7.30
2019-04-11T09:34:33.629Z,7.40
2019-04-11T09:37:22.229Z,7.50
2019-04-11T09:40:11.847Z,7.60
2019-04-11T09:43:07.162Z,7.60
2019-04-11T09:46:10.681Z,7.70
2019-04-11T09:48:58.034Z,7.80
2019-04-11T09:51:56.017Z,7.90
2019-04-11T09:54:54.618Z,8.00
2019-04-11T09:57:32.484Z,8.10
2019-04-11T10:00:28.686Z,8.10
2019-04-11T10:03:01.335Z,8.00
2019-04-11T10:05:42.686Z,8.00
2019-04-11T10:08:24.640Z,8.00
2019-04-11T10:11:28.695Z,8.00
2019-04-11T10:14:01.671Z,8.10
2019-04-11T10:16:53.260Z,8.40
2019-04-11T10:19:54.255Z,8.50
2019-04-11T10:22:49.108Z,8.60
2019-04-11T10:25:23.144Z,8.60
2019-04-11T10:28:29.913Z,8.50
2019-04-11T10:31:22.427Z,8.50
2019-04-11T10:34:20.100Z,8.60
2019-04-11T10:37:14.356Z,8.50
2019-04-11T10:40:03.929Z,8.50
2019-04-11T10:42:35.000Z,8.60
2019-04-11T10:45:31.174Z,8.60
2019-04-11T10:48:05.585Z,8.70
2019-04-11T10:50:58.230Z,9.00
2019-04-11T10:53:27.928Z,9.20
2019-04-11T10:56:08.949Z,9.40
2019-04-11T10:59:07.609Z,9.60
2019-04-11T11:02:04.486Z,9.70
2019-04-11T11:04:40.984Z,9.70
2019-04-11T11:07:13.527Z,9.70
2019-04-11T11:10:04.913Z,9.80
2019-04-11T11:13:05.640Z,9.80
2019-04-11T11:15:42.623Z,9.90
2019-04-11T11:19:14.946Z,9.80
2019-04-11T11:21:27.554Z,10.00
2019-04-11T11:24:11.859Z,9.90
2019-04-11T11:26:41.482Z,9.90
2019-04-11T11:29:40.212Z,10.10
2019-04-11T11:32:27.622Z,10.20
2019-04-11T11:35:15.148Z,10.20
2019-04-11T11:38:02.026Z,10.30
2019-04-11T11:40:50.075Z,10.30
2019-04-11T11:43:23.167Z,10.40
2019-04-11T11:46:29.798Z,10.50
2019-04-11T11:49:38.939Z,10.50
2019-04-11T11:52:11.111Z,10.80
2019-04-11T11:54:48.168Z,11.00
2019-04-11T11:57:24.913Z,11.00
2019-04-11T12:00:10.313Z,11.00
2019-04-11T12:02:49.113Z,11.10
2019-04-11T12:05:26.090Z,10.90
2019-04-11T12:08:04.343Z,10.80
2019-04-11T12:10:59.669Z,10.70
2019-04-11T12:13:48.352Z,10.60
2019-04-11T12:16:27.924Z,10.60
2019-04-11T12:19:06.770Z,10.60
2019-04-11T12:21:36.783Z,10.60
2019-04-11T12:24:32.397Z,10.50
2019-04-11T12:27:21.290Z,10.50
2019-04-11T12:30:23.445Z,10.50
2019-04-11T12:33:01.316Z,10.40
2019-04-11T12:35:58.932Z,10.40
2019-04-11T12:38:49.500Z,10.40
2019-04-11T12:41:37.862Z,10.20
2019-04-11T12:44:29.531Z,10.10
2019-04-11T12:47:31.524Z,10.10
2019-04-11T12:50:28.885Z,10.10
2019-04-11T12:53:12.483Z,10.10
2019-04-11T12:56:03.843Z,9.90
2019-04-11T12:58:51.011Z,9.90
2019-04-11T13:01:57.377Z,9.90
2019-04-11T13:04:31.969Z,10.10
2019-04-11T13:07:35.472Z,10.10
2019-04-11T13:10:31.650Z,10.10
2019-04-11T13:13:20.130Z,10.30
2019-04-11T13:15:54.685Z,10.30
2019-04-11T13:18:43.178Z,10.30
2019-04-11T13:21:31.636Z,10.40
2019-04-11T13:24:23.285Z,10.50
2019-04-11T13:27:10.245Z,10.30
2019-04-11T13:30:05.084Z,10.40
2019-04-11T13:32:42.950Z,10.50
2019-04-11T13:35:46.594Z,10.50
2019-04-11T13:38:28.713Z,10.50
2019-04-11T13:41:14.997Z,10.80
2019-04-11T13:43:51.074Z,10.90
2019-04-11T13:46:39.830Z,11.10
2019-04-11T13:49:27.180Z,11.30
2019-04-11T13:52:30.440Z,11.50
2019-04-11T13:55:14.624Z,11.50
2019-04-11T13:58:03.364Z,11.90
2019-04-11T14:00:55.104Z,11.70
2019-04-11T14:03:49.293Z,11.70
2019-04-11T14:06:24.927Z,11.80
2019-04-11T14:09:05.029Z,11.80
2019-04-11T14:11:34.957Z,11.70
2019-04-11T14:14:13.274Z,11.50
2019-04-11T14:16:50.422Z,11.50
2019-04-11T14:19:30.736Z,11.40
2019-04-11T14:22:00.401Z,11.30
2019-04-11T14:24:43.916Z,11.30
2019-04-11T14:27:19.938Z,11.30
2019-04-11T14:29:59.504Z,11.40
2019-04-11T14:32:31.158Z,11.30
2019-04-11T14:35:17.796Z,11.20
2019-04-11T14:37:50.678Z,11.20
2019-04-11T14:40:42.555Z,11.10
2019-04-11T14:43:40.027Z,11.20
2019-04-11T14:46:28.440Z,11.30
2019-04-11T14:49:00.898Z,11.20
2019-04-11T14:51:55.022Z,10.90
2019-04-11T14:54:28.396Z,10.70
2019-04-11T14:57:11.535Z,10.70
2019-04-11T14:59:46.359Z,10.60
2019-04-11T15:02:29.191Z,10.50
2019-04-11T15:05:06.168Z,10.40
2019-04-11T15:07:36.536Z,10.40
2019-04-11T15:10:37.264Z,10.30
2019-04-11T15:13:07.394Z,10.30
2019-04-11T15:15:55.758Z,10.20
2019-04-11T15:18:27.470Z,10.20
2019-04-11T15:21:17.294Z,10.20
2019-04-11T15:23:49.028Z,10.00
2019-04-11T15:26:36.616Z,10.00
2019-04-11T15:29:28.406Z,9.90
2019-04-11T15:32:16.771Z,9.60
2019-04-11T15:34:52.946Z,9.40
2019-04-11T15:37:47.784Z,9.30
2019-04-11T15:40:24.340Z,9.30
2019-04-11T15:43:28.066Z,9.20
2019-04-11T15:46:01.396Z,9.10
2019-04-11T15:49:01.852Z,9.20
2019-04-11T15:51:36.588Z,9.10
2019-04-11T15:54:25.588Z,9.20
2019-04-11T15:57:01.146Z,9.20
2019-04-11T15:59:56.185Z,9.20
2019-04-11T16:02:37.959Z,9.20
2019-04-11T16:05:36.600Z,9.20
2019-04-11T16:08:14.479Z,9.10
2019-04-11T16:10:56.087Z,9.00
2019-04-11T16:13:36.446Z,8.90
2019-04-11T16:16:09.616Z,8.90
2019-04-11T16:18:56.613Z,8.80
2019-04-11T16:21:35.054Z,8.80
2019-04-11T16:24:10.206Z,8.70
2019-04-11T16:26:58.569Z,8.80
2019-04-11T16:29:32.253Z,8.70
2019-04-11T16:32:04.698Z,8.60
2019-04-11T16:34:55.336Z,8.50
2019-04-11T16:37:24.658Z,8.50
2019-04-11T16:40:11.930Z,8.30
2019-04-11T16:42:43.692Z,8.30
2019-04-11T16:45:32.373Z,8.20
2019-04-11T16:48:04.634Z,8.20
2019-04-11T16:50:34.254Z,8.20
2019-04-11T16:53:03.720Z,8.20
2019-04-11T16:55:33.546Z,8.20
2019-04-11T16:58:03.035Z,8.20
2019-04-11T17:00:32.656Z,8.10
2019-04-11T17:03:02.164Z,8.10
2019-04-11T17:05:32.241Z,8.10
2019-04-11T17:08:25.766Z,8.10
2019-04-11T17:11:00.620Z,8.10
2019-04-11T17:13:32.369Z,8.00
2019-04-11T17:16:01.738Z,7.90
2019-04-11T17:18:33.975Z,7.90
2019-04-11T17:21:02.249Z,7.90
2019-04-11T17:23:31.631Z,7.90
2019-04-11T17:26:01.571Z,7.90
2019-04-11T17:28:31.572Z,7.80
2019-04-11T17:31:02.360Z,7.80
2019-04-11T17:33:31.811Z,7.80
2019-04-11T17:36:02.719Z,7.90
2019-04-11T17:38:32.372Z,7.90
2019-04-11T17:41:02.064Z,7.80
2019-04-11T17:43:31.449Z,7.70
2019-04-11T17:46:00.903Z,7.60
2019-04-11T17:48:30.725Z,7.60
2019-04-11T17:51:00.154Z,7.50
2019-04-11T17:53:29.596Z,7.60
2019-04-11T17:55:58.954Z,7.50
2019-04-11T17:58:28.369Z,7.50
2019-04-11T18:01:04.685Z,7.40
2019-04-11T18:03:31.746Z,7.40
2019-04-11T18:06:01.176Z,7.40
2019-04-11T18:08:30.559Z,7.40
2019-04-11T18:10:59.990Z,7.40
2019-04-11T18:13:31.519Z,7.30
2019-04-11T18:16:01.150Z,7.30
2019-04-11T18:18:34.915Z,7.30
2019-04-11T18:21:02.363Z,7.30
2019-04-11T18:23:31.746Z,7.30
2019-04-11T18:26:01.205Z,7.30
2019-04-11T18:28:30.629Z,7.20
2019-04-11T18:31:00.396Z,7.20
2019-04-11T18:33:31.719Z,7.20
2019-04-11T18:36:02.406Z,7.20
2019-04-11T18:38:32.618Z,7.20
2019-04-11T18:41:02.379Z,7.20
2019-04-11T18:43:31.793Z,7.10
2019-04-11T18:46:01.184Z,7.10
2019-04-11T18:48:30.954Z,7.00
2019-04-11T18:51:00.353Z,7.00
2019-04-11T18:53:29.815Z,7.00
2019-04-11T18:56:01.560Z,7.00
2019-04-11T18:58:33.775Z,7.00
2019-04-11T19:01:01.470Z,7.00
2019-04-11T19:03:36.191Z,6.90
2019-04-11T19:06:02.159Z,6.90
2019-04-11T19:08:32.774Z,6.90
2019-04-11T19:11:02.198Z,6.90
2019-04-11T19:13:31.605Z,6.90
2019-04-11T19:16:01.143Z,6.80
2019-04-11T19:18:30.637Z,6.70
2019-04-11T19:21:00.098Z,6.60
2019-04-11T19:23:29.539Z,6.60
2019-04-11T19:25:58.946Z,6.60
2019-04-11T19:28:29.134Z,6.60
2019-04-11T19:30:58.591Z,6.50
2019-04-11T19:33:27.995Z,6.50
2019-04-11T19:35:58.757Z,6.50
2019-04-11T19:38:33.092Z,6.60
2019-04-11T19:41:02.481Z,6.60
2019-04-11T19:43:31.896Z,6.50
2019-04-11T19:46:01.314Z,6.50
2019-04-11T19:48:30.738Z,6.50
2019-04-11T19:51:00.515Z,6.50
2019-04-11T19:53:32.804Z,6.50
2019-04-11T19:56:14.814Z,6.50
2019-04-11T19:58:44.221Z,6.50
2019-04-11T20:01:13.704Z,6.50
2019-04-11T20:03:43.111Z,6.40
2019-04-11T20:06:13.444Z,6.40
2019-04-11T20:08:43.091Z,6.40
2019-04-11T20:11:12.543Z,6.30
2019-04-11T20:13:42.352Z,6.40
2019-04-11T20:16:12.541Z,6.40
2019-04-11T20:18:50.953Z,6.40
2019-04-11T20:21:14.534Z,6.30
2019-04-11T20:23:44.159Z,6.40
2019-04-11T20:26:13.541Z,6.30
2019-04-11T20:28:42.976Z,6.30
2019-04-11T20:31:12.392Z,6.30
2019-04-11T20:33:41.803Z,6.30
2019-04-11T20:36:11.568Z,6.30
2019-04-11T20:38:41.642Z,6.30
2019-04-11T20:41:11.007Z,6.20
2019-04-11T20:43:42.987Z,6.20
2019-04-11T20:46:11.931Z,6.20
2019-04-11T20:48:41.361Z,6.20
2019-04-11T20:51:11.071Z,6.10
2019-04-11T20:53:40.708Z,6.10
2019-04-11T20:56:23.358Z,6.10
2019-04-11T20:58:43.779Z,6.10
2019-04-11T21:01:13.133Z,6.10
2019-04-11T21:03:42.545Z,6.10
2019-04-11T21:06:12.291Z,6.20
2019-04-11T21:08:41.681Z,6.20
2019-04-11T21:11:11.093Z,6.20
2019-04-11T21:13:41.529Z,6.20
2019-04-11T21:16:10.895Z,6.10
2019-04-11T21:18:40.275Z,6.00
2019-04-11T21:21:09.737Z,6.00
2019-04-11T21:23:39.185Z,6.00
2019-04-11T21:26:09.007Z,6.00
2019-04-11T21:28:38.383Z,6.00
2019-04-11T21:31:07.833Z,6.00
2019-04-11T21:33:37.288Z,5.90
2019-04-11T21:36:06.992Z,6.00
2019-04-11T21:38:36.363Z,6.00
2019-04-11T21:41:06.664Z,6.00
2019-04-11T21:43:36.830Z,5.90
2019-04-11T21:46:06.962Z,6.00
2019-04-11T21:48:37.027Z,6.00
2019-04-11T21:51:11.002Z,6.00
2019-04-11T21:53:37.515Z,5.90
2019-04-11T21:56:07.259Z,5.90
2019-04-11T21:58:36.759Z,5.80
2019-04-11T22:01:10.703Z,5.70
2019-04-11T22:03:40.211Z,5.80
2019-04-11T22:06:09.529Z,5.80
2019-04-11T22:08:38.915Z,5.90
2019-04-11T22:11:10.159Z,5.90
2019-04-11T22:13:40.453Z,5.90
2019-04-11T22:16:13.384Z,5.90
2019-04-11T22:18:41.421Z,5.90
2019-04-11T22:21:12.910Z,5.90
2019-04-11T22:23:48.599Z,5.90
2019-04-11T22:26:13.033Z,5.90
2019-04-11T22:28:42.788Z,5.90
2019-04-11T22:31:12.213Z,5.80
2019-04-11T22:33:45.519Z,5.80
2019-04-11T22:36:14.969Z,5.70
2019-04-11T22:38:44.310Z,5.80
2019-04-11T22:41:13.733Z,5.80
2019-04-11T22:43:43.047Z,5.80
2019-04-11T22:46:20.478Z,5.80
2019-04-11T22:48:43.607Z,5.70
2019-04-11T22:51:13.007Z,5.60
2019-04-11T22:53:43.197Z,5.60
2019-04-11T22:56:13.645Z,5.70
2019-04-11T22:58:43.728Z,5.70
2019-04-11T23:01:16.630Z,5.60
2019-04-11T23:03:52.266Z,5.70
2019-04-11T23:06:22.105Z,5.50
2019-04-11T23:08:52.147Z,5.60
2019-04-11T23:11:21.573Z,5.60
2019-04-11T23:13:50.988Z,5.50
2019-04-11T23:16:20.414Z,5.60
2019-04-11T23:18:49.789Z,5.50
2019-04-11T23:21:19.218Z,5.50
2019-04-11T23:23:49.137Z,5.50
2019-04-11T23:26:18.574Z,5.50
2019-04-11T23:28:48.023Z,5.50
2019-04-11T23:31:20.107Z,5.50
2019-04-11T23:33:51.757Z,5.50
2019-04-11T23:36:21.260Z,5.50
2019-04-11T23:38:52.717Z,5.50
2019-04-11T23:41:22.474Z,5.50
2019-04-11T23:43:51.802Z,5.50
2019-04-11T23:46:21.421Z,5.50
2019-04-11T23:48:54.582Z,5.40
2019-04-11T23:51:25.675Z,5.40
2019-04-11T23:53:54.006Z,5.40
2019-04-11T23:56:23.327Z,5.40
2019-04-11T23:58:52.796Z,5.30
